Time;durP1;ratioP1;P1;durP2;ratioP2;P2;SDS_P1;SDS_P2;PMS_P1;PMS_P2;Temp;Humidity;BMP_temperature;BMP_pressure;BME280_temperature;BME280_humidity;BME280_pressure;Samples;Min_cycle;Max_cycle;Signal;HPM_P1;HPM_P2
2023/07/26 06:58:14;;;;;;;2.35;0.50;;;21.20;87.90;;;;;;6400006;27;20323;-55
2023/07/26 07:01:17;;;;;;;1.27;0.32;;;21.00;72.90;;;;;;6362603;27;20050;-54
2023/07/26 07:04:19;;;;;;;1.55;0.60;;;21.60;73.20;;;;;;6346284;27;20109;-55
2023/07/26 07:07:20;;;;;;;1.23;0.50;;;21.80;72.40;;;;;;6358350;27;20259;-55
2023/07/26 07:10:22;;;;;;;;;;;21.60;71.90;;;;;;6333072;27;20050;-55
2023/07/26 07:13:24;;;;;;;0.47;0.40;;;21.60;71.70;;;;;;6381481;27;20296;-57
2023/07/26 07:16:25;;;;;;;0.68;0.43;;;21.80;71.30;;;;;;6379610;27;20045;-55
2023/07/26 07:19:27;;;;;;;1.92;0.50;;;21.80;70.60;;;;;;6373501;27;20049;-55
2023/07/26 07:22:29;;;;;;;2.05;0.50;;;22.10;70.20;;;;;;6428698;27;20504;-54
2023/07/26 07:25:30;;;;;;;;;;;22.30;70.10;;;;;;6399057;27;20045;-56
2023/07/26 07:28:32;;;;;;;0.35;0.32;;;22.30;70.30;;;;;;6404666;27;19918;-56
2023/07/26 07:31:34;;;;;;;1.08;0.45;;;21.60;69.10;;;;;;6412356;27;20034;-56
2023/07/26 07:34:37;;;;;;;1.40;0.50;;;21.10;68.70;;;;;;6410353;27;20042;-47
2023/07/26 07:37:39;;;;;;;1.50;0.90;;;22.60;69.20;;;;;;6419541;27;20049;-46
2023/07/26 07:40:41;;;;;;;1.13;0.63;;;21.80;66.10;;;;;;6432254;27;20026;-46
2023/07/26 07:43:43;;;;;;;;;;;22.60;69.10;;;;;;6425738;27;20045;-44
2023/07/26 07:46:45;;;;;;;0.85;0.40;;;22.70;69.20;;;;;;6429862;27;19919;-46
2023/07/26 07:50:03;;;;;;;0.73;0.52;;;22.40;68.50;;;;;;6431894;27;20030;-49
2023/07/26 07:53:04;;;;;;;0.50;0.38;;;22.60;68.70;;;;;;6443208;27;20183;-48
2023/07/26 07:56:06;;;;;;;1.23;0.55;;;22.70;68.50;;;;;;6441835;27;20038;-48
2023/07/26 07:59:08;;;;;;;0.68;0.32;;;22.70;68.30;;;;;;6418793;27;20146;-47
2023/07/26 08:02:10;;;;;;;0.30;0.30;;;22.80;67.90;;;;;;6413827;27;20556;-46
2023/07/26 08:05:12;;;;;;;0.68;0.40;;;22.70;68.10;;;;;;6432271;27;20602;-46
2023/07/26 08:08:14;;;;;;;0.50;0.50;;;22.70;67.70;;;;;;6425689;27;20030;-53
2023/07/26 08:11:15;;;;;;;0.40;0.30;;;22.90;67.60;;;;;;6385108;27;20035;-49
2023/07/26 08:14:17;;;;;;;;;;;22.80;67.40;;;;;;6393296;27;20045;-50
2023/07/26 08:17:19;;;;;;;0.60;0.40;;;23.10;67.90;;;;;;6388141;27;19919;-53
2023/07/26 08:20:20;;;;;;;;;;;22.80;67.70;;;;;;6375262;27;20295;-49
2023/07/26 08:23:22;;;;;;;0.63;0.38;;;23.10;68.00;;;;;;6353337;27;20404;-50
2023/07/26 08:26:24;;;;;;;1.10;0.45;;;22.90;67.50;;;;;;6371044;27;20034;-53
2023/07/26 08:29:26;;;;;;;1.95;0.60;;;23.60;67.80;;;;;;6357732;27;20038;-51
2023/07/26 08:32:27;;;;;;;1.23;0.52;;;23.10;67.00;;;;;;6364289;27;20042;-52
2023/07/26 08:35:30;;;;;;;0.90;0.50;;;23.00;67.00;;;;;;6371428;27;20041;-49
2023/07/26 08:38:33;;;;;;;1.30;0.50;;;23.00;67.20;;;;;;6384016;27;20031;-49
2023/07/26 08:41:36;;;;;;;0.65;0.50;;;23.30;67.20;;;;;;6380481;27;20102;-51
2023/07/26 08:44:39;;;;;;;0.50;0.50;;;23.00;66.60;;;;;;6389108;27;20083;-52
2023/07/26 08:47:44;;;;;;;0.50;0.30;;;22.80;66.40;;;;;;6398379;27;20038;-52
2023/07/26 08:50:47;;;;;;;0.50;0.50;;;23.30;67.10;;;;;;6396722;27;20038;-49
2023/07/26 08:53:49;;;;;;;0.50;0.30;;;23.20;66.50;;;;;;6389110;27;20260;-49
2023/07/26 08:56:52;;;;;;;0.75;0.60;;;23.20;66.50;;;;;;6360628;27;20034;-52
2023/07/26 08:59:54;;;;;;;0.63;0.50;;;23.10;67.00;;;;;;6361505;27;20034;-51
2023/07/26 09:02:58;;;;;;;0.52;0.30;;;23.20;66.90;;;;;;6391331;27;20034;-47
2023/07/26 09:06:03;;;;;;;0.95;0.60;;;23.50;67.00;;;;;;6377915;27;20209;-47
2023/07/26 09:09:06;;;;;;;0.60;0.40;;;23.20;66.10;;;;;;6427307;27;20044;-50
2023/07/26 09:12:24;;;;;;;0.40;0.40;;;23.40;66.40;;;;;;6386457;27;20042;-49
2023/07/26 09:15:26;;;;;;;0.45;0.45;;;23.90;67.00;;;;;;6388188;27;20034;-49
2023/07/26 09:18:30;;;;;;;0.47;0.47;;;23.30;66.10;;;;;;6387961;27;20027;-46
2023/07/26 09:21:33;;;;;;;0.50;0.40;;;23.00;66.00;;;;;;6418079;27;20668;-49
2023/07/26 09:24:36;;;;;;;0.52;0.40;;;23.30;66.30;;;;;;6395642;27;20049;-48
2023/07/26 09:27:52;;;;;;;0.55;0.30;;;23.40;65.80;;;;;;6386632;27;20049;-52
2023/07/26 09:30:58;;;;;;;0.82;0.40;;;22.70;65.80;;;;;;6405720;27;20030;-51
2023/07/26 09:34:03;;;;;;;2.15;0.50;;;23.50;65.50;;;;;;6408577;27;20038;-49
2023/07/26 09:37:05;;;;;;;0.73;0.40;;;23.50;65.90;;;;;;6389846;27;20041;-51
2023/07/26 09:40:08;;;;;;;0.95;0.60;;;23.60;65.90;;;;;;6409596;27;20034;-52
2023/07/26 09:43:09;;;;;;;1.55;0.68;;;23.40;65.90;;;;;;6403712;27;20038;-47
2023/07/26 09:46:15;;;;;;;0.50;0.50;;;23.40;66.10;;;;;;6414839;27;20030;-53
2023/07/26 09:49:22;;;;;;;1.45;0.50;;;23.60;65.80;;;;;;6395299;27;20042;-50
2023/07/26 09:52:27;;;;;;;0.75;0.40;;;23.70;65.90;;;;;;6382656;27;20026;-50
2023/07/26 09:55:33;;;;;;;0.93;0.50;;;23.70;65.40;;;;;;6394347;27;20257;-49
2023/07/26 09:58:42;;;;;;;1.38;0.68;;;23.90;65.60;;;;;;6406720;27;20034;-46
2023/07/26 10:01:47;;;;;;;2.00;0.75;;;23.90;65.70;;;;;;6425255;27;20100;-51
2023/07/26 10:04:50;;;;;;;1.45;0.60;;;23.80;65.70;;;;;;6421884;27;20338;-49
2023/07/26 10:07:53;;;;;;;1.17;0.68;;;23.70;65.70;;;;;;6407344;27;20065;-51
2023/07/26 10:10:57;;;;;;;1.02;0.50;;;23.90;65.40;;;;;;6406534;27;20034;-51
2023/07/26 10:14:03;;;;;;;1.23;0.50;;;23.70;65.40;;;;;;6428487;27;20034;-48
2023/07/26 10:17:06;;;;;;;0.35;0.35;;;24.00;63.10;;;;;;6422981;27;20038;-49
2023/07/26 10:20:10;;;;;;;1.20;0.60;;;23.80;65.50;;;;;;6386274;27;20042;-49
2023/07/26 10:23:12;;;;;;;1.08;0.65;;;23.80;65.40;;;;;;6426074;27;20030;-48
2023/07/26 10:26:15;;;;;;;2.25;0.50;;;23.90;65.70;;;;;;6420740;27;20131;-48
2023/07/26 10:29:17;;;;;;;1.75;0.60;;;24.20;65.90;;;;;;6432868;27;20078;-50
2023/07/26 10:32:23;;;;;;;0.57;0.30;;;23.90;65.80;;;;;;6429392;27;20117;-48
2023/07/26 10:35:28;;;;;;;1.15;0.50;;;23.90;65.90;;;;;;6425234;27;20129;-51
2023/07/26 10:38:30;;;;;;;0.63;0.63;;;24.00;66.00;;;;;;6416832;27;20069;-47
2023/07/26 10:41:32;;;;;;;0.95;0.50;;;23.80;65.90;;;;;;6433267;27;20105;-50
2023/07/26 10:44:40;;;;;;;0.75;0.40;;;25.40;67.40;;;;;;6415192;27;20030;-51
2023/07/26 10:47:54;;;;;;;0.70;0.35;;;24.10;66.00;;;;;;6414071;27;20042;-50
2023/07/26 10:50:56;;;;;;;0.52;0.40;;;24.10;66.30;;;;;;6432412;27;20049;-48
2023/07/26 10:53:59;;;;;;;0.68;0.50;;;23.70;65.70;;;;;;6431550;27;20030;-51
2023/07/26 10:57:14;;;;;;;0.60;0.50;;;24.20;66.60;;;;;;6414062;27;20064;-48
2023/07/26 11:00:22;;;;;;;0.40;0.40;;;24.10;66.00;;;;;;6413865;27;20125;-49
2023/07/26 11:03:27;;;;;;;0.80;0.68;;;24.20;66.10;;;;;;6428235;27;20034;-51
2023/07/26 11:06:48;;;;;;;0.80;0.70;;;24.10;65.60;;;;;;6410527;27;20086;-49
2023/07/26 11:09:50;;;;;;;0.45;0.40;;;24.30;65.50;;;;;;6427034;27;20053;-53
2023/07/26 11:13:10;;;;;;;0.50;0.50;;;24.20;65.60;;;;;;6421976;27;20146;-47
2023/07/26 11:16:12;;;;;;;0.95;0.50;;;24.10;65.50;;;;;;6366774;27;20043;-50
2023/07/26 11:19:43;;;;;;;0.97;0.80;;;24.20;64.70;;;;;;6398057;27;20038;-49
2023/07/26 11:22:48;;;;;;;1.33;0.77;;;24.10;65.10;;;;;;6401790;27;20271;-49
2023/07/26 11:25:56;;;;;;;0.88;0.60;;;24.20;65.00;;;;;;6398639;27;20062;-52
2023/07/26 11:28:58;;;;;;;1.20;0.60;;;24.20;65.20;;;;;;6404655;27;20038;-52
2023/07/26 11:32:03;;;;;;;1.67;0.60;;;24.30;65.20;;;;;;6397805;27;20309;-50
2023/07/26 11:35:06;;;;;;;1.85;0.65;;;24.10;65.90;;;;;;6371491;27;20570;-53
2023/07/26 11:38:08;;;;;;;1.88;0.82;;;24.20;65.40;;;;;;6401783;27;20034;-51
2023/07/26 11:41:16;;;;;;;1.40;0.77;;;24.20;66.20;;;;;;6370479;27;20046;-52
2023/07/26 11:44:20;;;;;;;1.67;0.70;;;24.40;65.70;;;;;;6418647;27;20393;-51
2023/07/26 11:47:22;;;;;;;1.30;0.60;;;24.20;66.00;;;;;;6429289;27;20045;-52
2023/07/26 11:50:28;;;;;;;2.90;1.00;;;24.30;65.90;;;;;;6401105;27;20022;-49
2023/07/26 11:53:32;;;;;;;2.42;0.90;;;24.50;66.00;;;;;;6411264;27;20265;-52
2023/07/26 11:56:37;;;;;;;1.58;0.73;;;24.20;65.60;;;;;;6403302;27;20162;-49
2023/07/26 11:59:41;;;;;;;1.00;0.50;;;24.40;66.90;;;;;;6390811;27;20026;-52
2023/07/26 12:02:42;;;;;;;1.05;0.50;;;24.40;65.90;;;;;;6403971;27;20428;-51
2023/07/26 12:05:51;;;;;;;1.35;0.50;;;24.40;66.00;;;;;;6389132;27;20038;-50
2023/07/26 12:08:53;;;;;;;1.50;0.57;;;24.20;65.80;;;;;;6394320;27;20063;-50
2023/07/26 12:11:55;;;;;;;1.17;0.50;;;24.60;66.40;;;;;;6387612;27;20054;-52
2023/07/26 12:14:59;;;;;;;2.40;0.90;;;24.30;65.60;;;;;;6408176;27;20153;-51
2023/07/26 12:18:03;;;;;;;1.63;0.80;;;24.50;64.00;;;;;;6410141;27;20096;-49
2023/07/26 12:21:07;;;;;;;1.40;0.60;;;24.40;65.80;;;;;;6404266;27;20082;-49
2023/07/26 12:24:15;;;;;;;1.20;0.50;;;24.60;67.10;;;;;;6401970;27;20073;-50
2023/07/26 12:27:17;;;;;;;1.60;0.45;;;24.40;65.90;;;;;;6390818;27;20749;-52
2023/07/26 12:30:19;;;;;;;0.68;0.40;;;24.50;66.00;;;;;;6388757;27;20046;-48
2023/07/26 12:33:21;;;;;;;1.52;0.40;;;25.40;66.50;;;;;;6391357;27;20511;-49
2023/07/26 12:36:25;;;;;;;0.85;0.60;;;24.30;65.60;;;;;;6408764;27;20034;-50
2023/07/26 12:39:26;;;;;;;2.58;1.45;;;24.60;66.10;;;;;;6357971;27;20041;-52
2023/07/26 12:42:29;;;;;;;0.93;0.50;;;23.70;65.90;;;;;;6401671;27;20042;-51
2023/07/26 12:45:31;;;;;;;1.13;0.52;;;24.60;66.20;;;;;;6395889;27;20034;-47
2023/07/26 12:48:38;;;;;;;1.65;0.60;;;24.40;66.10;;;;;;6406837;27;20125;-51
2023/07/26 12:51:40;;;;;;;0.85;0.47;;;25.00;66.30;;;;;;6401838;27;20030;-51
2023/07/26 12:54:41;;;;;;;1.30;0.55;;;24.60;66.10;;;;;;6406285;27;20102;-49
2023/07/26 12:57:43;;;;;;;0.85;0.40;;;24.60;66.30;;;;;;6410221;27;20090;-48
2023/07/26 13:00:47;;;;;;;0.55;0.40;;;24.70;66.20;;;;;;6403052;27;20045;-52
2023/07/26 13:03:49;;;;;;;1.30;0.73;;;24.90;66.10;;;;;;6377820;27;20369;-51
2023/07/26 13:06:52;;;;;;;0.75;0.40;;;24.80;66.60;;;;;;6425658;27;20034;-50
2023/07/26 13:09:54;;;;;;;0.95;0.40;;;24.70;66.00;;;;;;6419335;27;20040;-48
2023/07/26 13:12:56;;;;;;;1.67;0.50;;;24.70;66.40;;;;;;6438628;27;20055;-49
2023/07/26 13:15:58;;;;;;;0.35;0.35;;;24.90;66.50;;;;;;6412534;27;20050;-50
2023/07/26 13:19:00;;;;;;;0.90;0.50;;;24.90;66.50;;;;;;6428266;27;20049;-46
2023/07/26 13:22:03;;;;;;;1.50;0.80;;;24.80;66.10;;;;;;6431619;27;20099;-50
2023/07/26 13:25:05;;;;;;;1.23;0.70;;;24.90;66.30;;;;;;6431205;27;20030;-49
2023/07/26 13:28:07;;;;;;;0.90;0.60;;;24.80;66.10;;;;;;6430204;27;20099;-50
2023/07/26 13:31:09;;;;;;;1.20;0.50;;;24.80;66.10;;;;;;6400503;27;20421;-48
2023/07/26 13:34:11;;;;;;;0.95;0.57;;;24.70;65.80;;;;;;6408533;27;20671;-51
2023/07/26 13:37:14;;;;;;;0.40;0.32;;;24.80;66.30;;;;;;6397649;27;20477;-52
2023/07/26 13:40:17;;;;;;;0.73;0.55;;;24.90;65.90;;;;;;6388056;27;20238;-48
2023/07/26 13:43:18;;;;;;;1.30;0.47;;;24.80;66.40;;;;;;6404229;27;20052;-50
2023/07/26 13:46:20;;;;;;;0.70;0.60;;;24.70;65.90;;;;;;6417197;27;20051;-56
2023/07/26 13:49:40;;;;;;;2.75;0.52;;;25.00;66.60;;;;;;6407138;27;20045;-51
2023/07/26 13:52:42;;;;;;;1.50;0.50;;;24.90;65.90;;;;;;6429912;27;20057;-52
2023/07/26 13:55:46;;;;;;;1.58;0.77;;;24.80;66.20;;;;;;6434788;27;20041;-51
2023/07/26 13:58:47;;;;;;;1.13;0.70;;;24.90;66.50;;;;;;6401628;27;20580;-49
2023/07/26 14:01:51;;;;;;;1.67;0.63;;;25.00;66.30;;;;;;6395558;27;20034;-52
2023/07/26 14:04:58;;;;;;;1.15;0.60;;;24.60;65.50;;;;;;6392621;27;20564;-53
2023/07/26 14:08:00;;;;;;;4.65;0.80;;;24.50;66.30;;;;;;6405364;27;20444;-48
2023/07/26 14:11:02;;;;;;;2.17;0.63;;;24.90;66.30;;;;;;6390598;27;20383;-52
2023/07/26 14:14:04;;;;;;;1.80;1.00;;;24.80;66.40;;;;;;6399042;27;20050;-51
2023/07/26 14:17:06;;;;;;;1.90;0.55;;;24.30;65.80;;;;;;6395968;27;20030;-49
2023/07/26 14:20:08;;;;;;;3.03;0.65;;;24.70;66.00;;;;;;6402944;27;20066;-47
2023/07/26 14:23:10;;;;;;;1.25;0.85;;;24.10;65.30;;;;;;6401518;27;20038;-49
2023/07/26 14:26:11;;;;;;;0.50;0.40;;;24.90;66.10;;;;;;6392428;27;20556;-52
2023/07/26 14:29:14;;;;;;;0.85;0.57;;;24.70;66.00;;;;;;6393496;27;20059;-49
2023/07/26 14:32:15;;;;;;;0.93;0.50;;;25.00;66.30;;;;;;6391187;27;20030;-50
2023/07/26 14:35:17;;;;;;;0.63;0.40;;;25.10;66.20;;;;;;6386345;27;20111;-51
2023/07/26 14:38:19;;;;;;;2.35;0.60;;;25.00;66.70;;;;;;6374637;27;20038;-49
2023/07/26 14:41:21;;;;;;;0.70;0.40;;;24.90;66.30;;;;;;6394467;27;20035;-50
2023/07/26 14:44:22;;;;;;;1.13;0.50;;;24.90;66.50;;;;;;6404300;27;20034;-50
2023/07/26 14:47:24;;;;;;;2.00;0.50;;;25.10;66.80;;;;;;6408373;27;20049;-48
2023/07/26 14:50:29;;;;;;;1.05;0.40;;;24.70;66.70;;;;;;6399032;27;20040;-49
2023/07/26 14:53:32;;;;;;;1.75;0.60;;;24.90;65.10;;;;;;6396454;27;20719;-50
2023/07/26 14:56:33;;;;;;;0.73;0.65;;;24.80;66.60;;;;;;6412735;27;20042;-48
2023/07/26 14:59:35;;;;;;;1.10;0.50;;;24.70;66.90;;;;;;6405292;27;20038;-48
2023/07/26 15:02:37;;;;;;;1.25;0.70;;;24.70;67.00;;;;;;6398087;27;20789;-51
2023/07/26 15:05:38;;;;;;;1.65;1.00;;;24.70;66.60;;;;;;6396644;27;20039;-49
2023/07/26 15:08:42;;;;;;;1.33;1.00;;;24.90;67.40;;;;;;6407029;27;20514;-48
2023/07/26 15:11:44;;;;;;;1.27;1.00;;;24.70;64.00;;;;;;6376397;27;20027;-51
2023/07/26 15:14:46;;;;;;;1.10;0.70;;;24.70;66.90;;;;;;6360989;27;20481;-50
2023/07/26 15:17:47;;;;;;;2.22;0.77;;;24.70;66.90;;;;;;6368140;27;20146;-52
2023/07/26 15:20:49;;;;;;;1.13;0.70;;;;;;;;;;6391450;27;20061;-50
2023/07/26 15:23:53;;;;;;;1.63;0.70;;;24.50;77.00;;;;;;6409360;27;20038;-49
2023/07/26 15:26:54;;;;;;;2.65;0.95;;;24.80;69.20;;;;;;6375811;27;20038;-52
2023/07/26 15:29:56;;;;;;;1.20;0.80;;;24.70;67.30;;;;;;6394988;27;20567;-48
2023/07/26 15:32:58;;;;;;;1.38;0.50;;;24.40;67.30;;;;;;6396008;27;20034;-52
2023/07/26 15:35:59;;;;;;;2.90;1.02;;;24.70;67.80;;;;;;6392718;27;20109;-53
2023/07/26 15:39:02;;;;;;;2.10;0.77;;;24.90;67.50;;;;;;6403332;27;20055;-50
2023/07/26 15:42:04;;;;;;;1.92;0.70;;;24.50;67.10;;;;;;6407709;27;20038;-50
2023/07/26 15:45:11;;;;;;;1.67;0.65;;;24.50;66.80;;;;;;6409465;27;20066;-50
2023/07/26 15:48:19;;;;;;;1.08;0.68;;;24.80;66.90;;;;;;6407133;27;20503;-49
2023/07/26 15:51:21;;;;;;;0.95;0.60;;;24.90;67.10;;;;;;6409840;27;20528;-51
2023/07/26 15:54:23;;;;;;;0.90;0.50;;;24.60;66.40;;;;;;6406609;27;20042;-51
2023/07/26 15:57:25;;;;;;;0.60;0.55;;;24.70;66.60;;;;;;6409920;27;20107;-51
2023/07/26 16:00:27;;;;;;;1.35;0.80;;;24.70;66.50;;;;;;6401679;27;20042;-51
2023/07/26 16:03:28;;;;;;;0.50;0.30;;;24.80;66.40;;;;;;6402525;27;20038;-51
2023/07/26 16:06:33;;;;;;;0.73;0.40;;;24.20;65.90;;;;;;6397628;27;20054;-52
2023/07/26 16:09:55;;;;;;;0.60;0.50;;;24.70;66.30;;;;;;6391313;27;20746;-51
2023/07/26 16:12:56;;;;;;;0.98;0.50;;;24.90;66.30;;;;;;6406105;27;20036;-52
2023/07/26 16:15:58;;;;;;;0.55;0.40;;;25.10;66.40;;;;;;6408119;27;20574;-51
2023/07/26 16:19:05;;;;;;;0.47;0.40;;;25.00;65.90;;;;;;6404932;27;20094;-50
2023/07/26 16:22:10;;;;;;;1.17;0.32;;;24.90;66.50;;;;;;6383440;27;20044;-50
2023/07/26 16:25:12;;;;;;;1.05;0.50;;;25.00;65.90;;;;;;6397131;27;20439;-50
2023/07/26 16:28:14;;;;;;;0.47;0.47;;;24.90;65.80;;;;;;6407843;27;20042;-50
2023/07/26 16:31:16;;;;;;;0.75;0.52;;;24.80;65.50;;;;;;6407993;27;20046;-52
2023/07/26 16:34:19;;;;;;;0.32;0.30;;;25.00;65.60;;;;;;6399466;27;20133;-51
2023/07/26 16:37:21;;;;;;;0.50;0.45;;;25.00;65.80;;;;;;6404283;27;20095;-51
2023/07/26 16:40:26;;;;;;;0.35;0.35;;;25.10;65.40;;;;;;6402422;27;20034;-52
2023/07/26 16:43:27;;;;;;;0.43;0.43;;;24.80;65.00;;;;;;6403964;27;20440;-52
2023/07/26 16:46:29;;;;;;;0.52;0.40;;;24.90;65.00;;;;;;6402153;27;20042;-52
2023/07/26 16:49:50;;;;;;;;;;;25.20;65.10;;;;;;6388075;27;20034;-53
2023/07/26 16:52:52;;;;;;;0.30;0.28;;;25.30;65.30;;;;;;6403747;27;19926;-53
2023/07/26 16:55:56;;;;;;;0.80;0.43;;;25.30;64.80;;;;;;6401287;27;20035;-51
2023/07/26 16:58:57;;;;;;;0.68;0.55;;;24.90;64.40;;;;;;6395821;27;20377;-53
2023/07/26 17:02:00;;;;;;;0.55;0.43;;;25.10;64.50;;;;;;6398832;27;20034;-52
2023/07/26 17:05:02;;;;;;;0.60;0.40;;;25.30;64.50;;;;;;6398575;27;20462;-52
2023/07/26 17:08:06;;;;;;;0.63;0.40;;;24.80;64.00;;;;;;6402105;27;20034;-50
2023/07/26 17:11:08;;;;;;;0.60;0.50;;;25.10;64.20;;;;;;6352092;27;20389;-50
2023/07/26 17:14:09;;;;;;;0.47;0.30;;;24.90;63.90;;;;;;6405601;27;20034;-51
2023/07/26 17:17:11;;;;;;;0.60;0.43;;;24.80;63.80;;;;;;6406497;27;20038;-51
2023/07/26 17:20:12;;;;;;;0.82;0.40;;;25.30;64.20;;;;;;6408571;27;20038;-52
2023/07/26 17:23:14;;;;;;;0.50;0.30;;;25.30;63.70;;;;;;6406933;27;20041;-51
2023/07/26 17:26:16;;;;;;;0.30;0.30;;;25.50;63.90;;;;;;6408075;27;20039;-53
2023/07/26 17:29:18;;;;;;;0.50;0.30;;;25.10;63.20;;;;;;6352048;27;20062;-53
2023/07/26 17:32:20;;;;;;;0.57;0.40;;;25.40;62.90;;;;;;6403724;27;20039;-52
2023/07/26 17:35:27;;;;;;;0.90;0.50;;;25.30;63.20;;;;;;6401724;27;20035;-53
2023/07/26 17:38:28;;;;;;;0.22;0.22;;;25.30;62.90;;;;;;6383132;27;20352;-53
2023/07/26 17:41:30;;;;;;;0.50;0.30;;;25.10;62.90;;;;;;6400584;27;20042;-49
2023/07/26 17:44:32;;;;;;;0.73;0.30;;;25.20;62.80;;;;;;6402747;27;20043;-49
2023/07/26 17:47:34;;;;;;;0.20;0.20;;;25.30;63.10;;;;;;6403262;27;20239;-51
2023/07/26 17:50:35;;;;;;;0.65;0.22;;;25.30;62.80;;;;;;6404207;27;20310;-52
2023/07/26 17:53:37;;;;;;;0.40;0.40;;;24.90;62.60;;;;;;6404268;27;20045;-53
2023/07/26 17:56:39;;;;;;;0.38;0.20;;;25.30;78.30;;;;;;6400424;27;20045;-52
2023/07/26 17:59:41;;;;;;;0.57;0.30;;;25.40;63.10;;;;;;6399722;27;20068;-52
2023/07/26 18:02:42;;;;;;;0.65;0.45;;;25.30;62.60;;;;;;6403485;27;20106;-53
2023/07/26 18:05:44;;;;;;;0.40;0.30;;;25.40;62.90;;;;;;6404014;27;20030;-50
2023/07/26 18:08:51;;;;;;;0.20;0.20;;;25.30;62.60;;;;;;6405375;27;20570;-49
2023/07/26 18:11:55;;;;;;;0.43;0.15;;;25.30;62.70;;;;;;6403520;27;20048;-52
2023/07/26 18:14:57;;;;;;;0.20;0.20;;;25.30;62.50;;;;;;6403481;27;20030;-51
2023/07/26 18:17:59;;;;;;;0.30;0.30;;;25.50;62.80;;;;;;6402680;27;20030;-51
2023/07/26 18:21:05;;;;;;;0.20;0.20;;;25.30;62.70;;;;;;6403275;27;20054;-52
2023/07/26 18:24:08;;;;;;;0.22;0.22;;;25.50;62.60;;;;;;6366450;27;20079;-52
2023/07/26 18:27:12;;;;;;;0.28;0.20;;;25.30;62.60;;;;;;6402614;27;20679;-56
2023/07/26 18:30:13;;;;;;;0.20;0.20;;;25.30;63.00;;;;;;6398838;27;20038;-57
2023/07/26 18:33:15;;;;;;;0.20;0.20;;;25.20;62.50;;;;;;6398509;27;20034;-56
2023/07/26 18:36:16;;;;;;;0.20;0.20;;;25.20;62.50;;;;;;6380320;27;20042;-54
2023/07/26 18:39:18;;;;;;;0.10;0.10;;;25.60;63.10;;;;;;6399010;27;20545;-55
2023/07/26 18:42:26;;;;;;;0.28;0.20;;;25.30;62.70;;;;;;6398419;27;20747;-55
2023/07/26 18:45:27;;;;;;;0.20;0.20;;;25.40;60.00;;;;;;6397182;27;20061;-53
2023/07/26 18:48:31;;;;;;;0.20;0.20;;;25.20;62.80;;;;;;6398243;27;20046;-56
2023/07/26 18:51:33;;;;;;;0.20;0.20;;;25.10;62.50;;;;;;6398348;27;20065;-52
2023/07/26 18:54:35;;;;;;;0.30;0.30;;;25.40;63.00;;;;;;6396658;27;20034;-53
2023/07/26 18:57:38;;;;;;;0.20;0.20;;;25.40;63.00;;;;;;6396104;27;20042;-53
2023/07/26 19:00:40;;;;;;;0.40;0.35;;;25.40;63.40;;;;;;6395143;27;20038;-53
2023/07/26 19:03:42;;;;;;;0.20;0.20;;;24.90;63.30;;;;;;6390501;27;20045;-54
2023/07/26 19:06:48;;;;;;;0.20;0.20;;;25.10;63.00;;;;;;6389855;27;20095;-52
2023/07/26 19:09:51;;;;;;;0.30;0.30;;;25.00;63.40;;;;;;6388091;27;20082;-55
2023/07/26 19:12:53;;;;;;;0.30;0.30;;;25.90;64.10;;;;;;6397841;27;20891;-54
2023/07/26 19:15:55;;;;;;;0.10;0.10;;;24.90;63.40;;;;;;6396639;27;20083;-54
2023/07/26 19:18:57;;;;;;;0.30;0.20;;;25.30;63.30;;;;;;6396993;27;20039;-55
2023/07/26 19:21:59;;;;;;;0.10;0.10;;;25.40;63.50;;;;;;6385563;27;20034;-53
2023/07/26 19:25:00;;;;;;;0.50;0.20;;;24.90;63.30;;;;;;6399239;27;20038;-53
2023/07/26 19:28:03;;;;;;;0.30;0.30;;;25.40;63.30;;;;;;6399518;27;20041;-52
2023/07/26 19:31:04;;;;;;;0.20;0.20;;;25.20;63.50;;;;;;6392717;27;20034;-52
2023/07/26 19:34:06;;;;;;;0.28;0.20;;;25.20;63.50;;;;;;6387420;27;20416;-52
2023/07/26 19:37:07;;;;;;;0.20;0.20;;;25.40;64.40;;;;;;6398828;27;20308;-55
2023/07/26 19:40:10;;;;;;;0.30;0.30;;;25.20;63.90;;;;;;6398504;27;20038;-54
2023/07/26 19:43:12;;;;;;;0.40;0.20;;;25.40;64.10;;;;;;6386274;27;20090;-53
2023/07/26 19:46:15;;;;;;;0.20;0.10;;;24.90;63.60;;;;;;6379078;27;20045;-53
2023/07/26 19:49:17;;;;;;;0.20;0.20;;;25.10;64.40;;;;;;6398909;27;20055;-54
2023/07/26 19:52:21;;;;;;;0.20;0.20;;;25.20;64.40;;;;;;6395272;27;20083;-50
2023/07/26 19:55:23;;;;;;;0.20;0.20;;;25.00;64.50;;;;;;6397315;27;20026;-54
2023/07/26 19:58:25;;;;;;;0.20;0.20;;;25.10;64.60;;;;;;6396169;27;20035;-51
2023/07/26 20:01:27;;;;;;;0.30;0.30;;;25.20;65.20;;;;;;6395435;27;20035;-52
2023/07/26 20:04:28;;;;;;;0.30;0.25;;;25.00;64.80;;;;;;6400360;27;20029;-53
2023/07/26 20:07:30;;;;;;;0.20;0.20;;;25.10;65.00;;;;;;6401553;27;20083;-53
2023/07/26 20:10:31;;;;;;;0.32;0.32;;;25.00;65.00;;;;;;6400996;27;20042;-55
2023/07/26 20:13:35;;;;;;;0.75;0.30;;;24.90;65.10;;;;;;6400130;27;20038;-54
2023/07/26 20:16:36;;;;;;;0.20;0.20;;;25.10;65.00;;;;;;6400297;27;20076;-51
2023/07/26 20:19:38;;;;;;;0.30;0.30;;;25.00;65.10;;;;;;6401264;27;20030;-52
2023/07/26 20:22:40;;;;;;;0.35;0.32;;;25.30;65.30;;;;;;6400767;27;20042;-53
2023/07/26 20:25:43;;;;;;;0.50;0.50;;;24.90;65.20;;;;;;6402559;27;20057;-54
2023/07/26 20:28:45;;;;;;;0.30;0.30;;;25.00;65.20;;;;;;6401756;27;20066;-54
2023/07/26 20:31:47;;;;;;;0.40;0.40;;;25.00;66.10;;;;;;6402105;27;20030;-54
2023/07/26 20:34:48;;;;;;;0.20;0.20;;;24.90;65.50;;;;;;6400783;27;20954;-54
2023/07/26 20:37:50;;;;;;;0.20;0.20;;;25.00;66.20;;;;;;6402097;27;20042;-53
2023/07/26 20:40:51;;;;;;;0.22;0.22;;;23.70;64.90;;;;;;6382271;27;20038;-50
2023/07/26 20:43:56;;;;;;;0.20;0.20;;;24.90;66.20;;;;;;6402256;27;20034;-52
2023/07/26 20:46:59;;;;;;;0.30;0.20;;;25.00;66.20;;;;;;6400067;27;20044;-51
2023/07/26 20:50:01;;;;;;;0.70;0.40;;;25.00;66.00;;;;;;6401561;27;20417;-53
2023/07/26 20:53:03;;;;;;;0.35;0.30;;;24.90;66.20;;;;;;6402038;27;20042;-55
2023/07/26 20:56:04;;;;;;;0.22;0.22;;;24.80;65.90;;;;;;6399526;27;20038;-51
2023/07/26 20:59:07;;;;;;;0.20;0.20;;;24.90;65.80;;;;;;6397828;27;20038;-53
2023/07/26 21:02:11;;;;;;;0.22;0.20;;;24.70;66.50;;;;;;6345579;27;20046;-54
2023/07/26 21:05:12;;;;;;;0.30;0.22;;;25.00;66.30;;;;;;6400812;27;20087;-51
2023/07/26 21:08:15;;;;;;;0.40;0.35;;;24.90;66.70;;;;;;6400787;27;20045;-55
2023/07/26 21:11:16;;;;;;;0.38;0.20;;;24.80;66.30;;;;;;6400905;27;20041;-53
2023/07/26 21:14:18;;;;;;;0.70;0.35;;;24.70;66.50;;;;;;6401836;27;20091;-52
2023/07/26 21:17:20;;;;;;;0.57;0.30;;;24.90;66.40;;;;;;6401390;27;20038;-54
2023/07/26 21:20:24;;;;;;;0.20;0.17;;;24.40;66.50;;;;;;6397067;27;20723;-54
2023/07/26 21:23:28;;;;;;;0.20;0.20;;;24.70;66.70;;;;;;6395508;27;20038;-52
2023/07/26 21:26:30;;;;;;;0.88;0.45;;;24.70;66.80;;;;;;6394563;27;20041;-50
2023/07/26 21:29:32;;;;;;;0.25;0.25;;;24.90;66.90;;;;;;6395547;27;20067;-53
2023/07/26 21:32:33;;;;;;;0.40;0.30;;;24.80;67.60;;;;;;6398730;27;20926;-51
2023/07/26 21:35:39;;;;;;;0.60;0.47;;;24.80;67.30;;;;;;6399612;27;20110;-53
2023/07/26 21:38:41;;;;;;;0.20;0.20;;;24.80;67.50;;;;;;6400490;27;20492;-55
2023/07/26 21:41:42;;;;;;;0.57;0.40;;;24.50;67.20;;;;;;6400547;27;20086;-53
2023/07/26 21:44:45;;;;;;;0.40;0.30;;;24.60;67.50;;;;;;6399345;27;20030;-54
2023/07/26 21:47:46;;;;;;;0.20;0.20;;;24.80;67.60;;;;;;6398546;27;20039;-54
2023/07/26 21:50:48;;;;;;;0.40;0.30;;;24.60;67.70;;;;;;6397968;27;20069;-54
2023/07/26 21:53:50;;;;;;;0.20;0.20;;;24.70;68.40;;;;;;6399880;27;20034;-54
2023/07/26 21:56:51;;;;;;;0.20;0.20;;;24.60;67.90;;;;;;6399374;27;20034;-53
2023/07/26 21:59:53;;;;;;;0.35;0.25;;;24.40;67.70;;;;;;6399082;27;20044;-53
2023/07/26 22:02:55;;;;;;;0.20;0.20;;;24.60;68.20;;;;;;6400624;27;20041;-54
2023/07/26 22:05:56;;;;;;;0.40;0.40;;;24.40;68.10;;;;;;6398414;27;20637;-53
2023/07/26 22:08:58;;;;;;;0.20;0.20;;;24.50;68.40;;;;;;6399719;27;20856;-54
2023/07/26 22:11:59;;;;;;;0.30;0.20;;;24.20;68.20;;;;;;6401168;27;20034;-53
2023/07/26 22:15:02;;;;;;;0.22;0.20;;;24.70;68.90;;;;;;6401360;27;20042;-55
2023/07/26 22:18:03;;;;;;;0.30;0.30;;;24.60;69.20;;;;;;6400955;27;20038;-53
2023/07/26 22:21:06;;;;;;;0.40;0.30;;;24.30;68.90;;;;;;6399919;27;20038;-54
2023/07/26 22:24:10;;;;;;;0.25;0.25;;;24.40;69.50;;;;;;6382037;27;20034;-53
2023/07/26 22:27:12;;;;;;;0.20;0.20;;;24.70;69.50;;;;;;6400557;27;20512;-54
2023/07/26 22:30:14;;;;;;;0.30;0.30;;;24.50;69.50;;;;;;6425616;27;20010;-57
2023/07/26 22:33:17;;;;;;;0.55;0.30;;;24.70;70.10;;;;;;6424022;27;20188;-57
2023/07/26 22:36:18;;;;;;;0.40;0.30;;;24.60;70.10;;;;;;6422252;27;20030;-56
2023/07/26 22:39:20;;;;;;;0.57;0.30;;;24.00;70.40;;;;;;6409340;27;20050;-56
2023/07/26 22:42:21;;;;;;;0.40;0.40;;;24.50;87.90;;;;;;6421982;27;20281;-56
2023/07/26 22:45:23;;;;;;;0.30;0.30;;;24.30;71.80;;;;;;6424247;27;20040;-56
2023/07/26 22:48:26;;;;;;;0.35;0.25;;;24.50;70.00;;;;;;6424096;27;20041;-56
2023/07/26 22:51:28;;;;;;;0.30;0.30;;;24.40;70.10;;;;;;6428127;27;20121;-55